sensor_id;sensor_type;location;lat;lon;timestamp;P1;durP1;ratioP1;P2;durP2;ratioP2
43861;SDS011;29510;52.140;5.034;2023-04-06T00:09:22;6.55;;;2.75;;
43861;SDS011;29510;52.140;5.034;2023-04-06T00:19:23;9.30;;;4.13;;
43861;SDS011;29510;52.140;5.034;2023-04-06T00:29:24;7.25;;;4.25;;
43861;SDS011;29510;52.140;5.034;2023-04-06T00:39:25;12.57;;;4.30;;
43861;SDS011;29510;52.140;5.034;2023-04-06T00:49:26;8.88;;;4.93;;
43861;SDS011;29510;52.140;5.034;2023-04-06T00:59:27;11.85;;;4.25;;
43861;SDS011;29510;52.140;5.034;2023-04-06T01:09:29;8.07;;;4.22;;
43861;SDS011;29510;52.140;5.034;2023-04-06T01:19:31;5.18;;;2.72;;
43861;SDS011;29510;52.140;5.034;2023-04-06T01:29:32;6.53;;;2.80;;
43861;SDS011;29510;52.140;5.034;2023-04-06T01:39:33;5.82;;;3.13;;
43861;SDS011;29510;52.140;5.034;2023-04-06T01:49:34;6.50;;;2.80;;
43861;SDS011;29510;52.140;5.034;2023-04-06T01:59:35;6.10;;;3.17;;
43861;SDS011;29510;52.140;5.034;2023-04-06T02:09:36;6.18;;;2.25;;
43861;SDS011;29510;52.140;5.034;2023-04-06T02:19:37;6.25;;;3.15;;
43861;SDS011;29510;52.140;5.034;2023-04-06T02:29:38;4.93;;;2.28;;
43861;SDS011;29510;52.140;5.034;2023-04-06T02:39:39;6.43;;;3.40;;
43861;SDS011;29510;52.140;5.034;2023-04-06T02:49:40;5.38;;;2.85;;
43861;SDS011;29510;52.140;5.034;2023-04-06T02:59:41;5.03;;;2.63;;
43861;SDS011;29510;52.140;5.034;2023-04-06T03:09:42;9.10;;;3.40;;
43861;SDS011;29510;52.140;5.034;2023-04-06T03:19:43;9.98;;;4.20;;
43861;SDS011;29510;52.140;5.034;2023-04-06T03:29:44;8.38;;;4.00;;
43861;SDS011;29510;52.140;5.034;2023-04-06T03:39:46;7.20;;;2.90;;
43861;SDS011;29510;52.140;5.034;2023-04-06T03:49:47;7.20;;;3.33;;
43861;SDS011;29510;52.140;5.034;2023-04-06T03:59:48;8.77;;;4.30;;
43861;SDS011;29510;52.140;5.034;2023-04-06T04:09:49;8.63;;;4.00;;
43861;SDS011;29510;52.140;5.034;2023-04-06T04:19:50;6.75;;;4.43;;
43861;SDS011;29510;52.140;5.034;2023-04-06T04:30:11;8.10;;;3.60;;
43861;SDS011;29510;52.140;5.034;2023-04-06T04:40:32;9.93;;;3.60;;
43861;SDS011;29510;52.140;5.034;2023-04-06T04:50:53;7.40;;;4.35;;
43861;SDS011;29510;52.140;5.034;2023-04-06T05:01:15;8.50;;;3.80;;
43861;SDS011;29510;52.140;5.034;2023-04-06T05:11:36;9.80;;;4.90;;
43861;SDS011;29510;52.140;5.034;2023-04-06T05:21:57;11.55;;;6.53;;
43861;SDS011;29510;52.140;5.034;2023-04-06T05:32:18;10.98;;;5.45;;
43861;SDS011;29510;52.140;5.034;2023-04-06T05:42:42;11.07;;;4.47;;
43861;SDS011;29510;52.140;5.034;2023-04-06T05:53:03;9.40;;;4.35;;
43861;SDS011;29510;52.140;5.034;2023-04-06T06:03:24;9.02;;;4.82;;
43861;SDS011;29510;52.140;5.034;2023-04-06T06:13:45;11.82;;;4.43;;
43861;SDS011;29510;52.140;5.034;2023-04-06T06:24:06;7.35;;;5.25;;
43861;SDS011;29510;52.140;5.034;2023-04-06T06:34:27;9.23;;;5.57;;
43861;SDS011;29510;52.140;5.034;2023-04-06T06:44:48;7.30;;;5.07;;
43861;SDS011;29510;52.140;5.034;2023-04-06T06:55:10;10.35;;;4.88;;
43861;SDS011;29510;52.140;5.034;2023-04-06T07:05:31;5.55;;;3.28;;
43861;SDS011;29510;52.140;5.034;2023-04-06T07:15:53;10.35;;;6.15;;
43861;SDS011;29510;52.140;5.034;2023-04-06T07:26:14;12.95;;;5.15;;
43861;SDS011;29510;52.140;5.034;2023-04-06T07:36:35;7.25;;;4.82;;
43861;SDS011;29510;52.140;5.034;2023-04-06T07:46:56;12.70;;;5.97;;
43861;SDS011;29510;52.140;5.034;2023-04-06T07:56:57;7.10;;;4.60;;
43861;SDS011;29510;52.140;5.034;2023-04-06T08:06:58;15.95;;;7.70;;
43861;SDS011;29510;52.140;5.034;2023-04-06T08:16:59;14.85;;;6.07;;
43861;SDS011;29510;52.140;5.034;2023-04-06T08:27:00;10.98;;;6.13;;
43861;SDS011;29510;52.140;5.034;2023-04-06T08:37:01;13.98;;;6.65;;
43861;SDS011;29510;52.140;5.034;2023-04-06T08:47:02;11.48;;;5.22;;
43861;SDS011;29510;52.140;5.034;2023-04-06T08:57:05;11.10;;;7.03;;
43861;SDS011;29510;52.140;5.034;2023-04-06T09:07:07;9.07;;;5.43;;
43861;SDS011;29510;52.140;5.034;2023-04-06T09:17:08;12.48;;;6.72;;
43861;SDS011;29510;52.140;5.034;2023-04-06T09:27:31;13.23;;;6.40;;
43861;SDS011;29510;52.140;5.034;2023-04-06T09:37:33;15.80;;;8.57;;
43861;SDS011;29510;52.140;5.034;2023-04-06T09:47:35;13.10;;;7.60;;
43861;SDS011;29510;52.140;5.034;2023-04-06T09:57:45;12.50;;;7.50;;
43861;SDS011;29510;52.140;5.034;2023-04-06T10:07:51;15.88;;;6.47;;
43861;SDS011;29510;52.140;5.034;2023-04-06T10:17:59;7.93;;;4.60;;
43861;SDS011;29510;52.140;5.034;2023-04-06T10:28:07;8.65;;;4.60;;
43861;SDS011;29510;52.140;5.034;2023-04-06T10:38:09;8.23;;;3.97;;
43861;SDS011;29510;52.140;5.034;2023-04-06T10:48:12;8.73;;;4.00;;
43861;SDS011;29510;52.140;5.034;2023-04-06T10:58:17;5.60;;;2.55;;
43861;SDS011;29510;52.140;5.034;2023-04-06T11:08:25;6.68;;;3.65;;
43861;SDS011;29510;52.140;5.034;2023-04-06T11:18:31;5.80;;;3.05;;
43861;SDS011;29510;52.140;5.034;2023-04-06T11:28:32;7.95;;;4.10;;
43861;SDS011;29510;52.140;5.034;2023-04-06T11:38:33;2.55;;;1.67;;
43861;SDS011;29510;52.140;5.034;2023-04-06T11:48:43;6.20;;;3.05;;
43861;SDS011;29510;52.140;5.034;2023-04-06T11:58:45;7.00;;;2.75;;
43861;SDS011;29510;52.140;5.034;2023-04-06T12:08:46;5.07;;;2.72;;
43861;SDS011;29510;52.140;5.034;2023-04-06T12:18:47;6.43;;;3.65;;
43861;SDS011;29510;52.140;5.034;2023-04-06T12:28:48;7.18;;;3.63;;
43861;SDS011;29510;52.140;5.034;2023-04-06T12:38:50;4.28;;;2.55;;
43861;SDS011;29510;52.140;5.034;2023-04-06T12:48:52;7.45;;;4.53;;
43861;SDS011;29510;52.140;5.034;2023-04-06T12:58:54;8.07;;;4.70;;
43861;SDS011;29510;52.140;5.034;2023-04-06T13:08:55;7.43;;;4.43;;
43861;SDS011;29510;52.140;5.034;2023-04-06T13:18:56;6.03;;;3.78;;
43861;SDS011;29510;52.140;5.034;2023-04-06T13:28:59;10.38;;;4.88;;
43861;SDS011;29510;52.140;5.034;2023-04-06T13:39:01;11.98;;;5.65;;
43861;SDS011;29510;52.140;5.034;2023-04-06T13:49:02;12.18;;;5.60;;
43861;SDS011;29510;52.140;5.034;2023-04-06T13:59:03;11.55;;;5.60;;
43861;SDS011;29510;52.140;5.034;2023-04-06T14:09:04;8.93;;;5.40;;
43861;SDS011;29510;52.140;5.034;2023-04-06T14:19:05;10.05;;;5.25;;
43861;SDS011;29510;52.140;5.034;2023-04-06T14:29:06;7.80;;;4.38;;
43861;SDS011;29510;52.140;5.034;2023-04-06T14:39:07;7.05;;;4.85;;
43861;SDS011;29510;52.140;5.034;2023-04-06T14:49:10;6.53;;;4.93;;
43861;SDS011;29510;52.140;5.034;2023-04-06T14:59:11;11.68;;;5.18;;
43861;SDS011;29510;52.140;5.034;2023-04-06T15:09:12;9.32;;;4.97;;
43861;SDS011;29510;52.140;5.034;2023-04-06T15:19:13;7.85;;;3.88;;
43861;SDS011;29510;52.140;5.034;2023-04-06T15:29:14;6.30;;;3.85;;
43861;SDS011;29510;52.140;5.034;2023-04-06T15:39:15;9.32;;;4.70;;
43861;SDS011;29510;52.140;5.034;2023-04-06T15:49:16;9.18;;;4.28;;
43861;SDS011;29510;52.140;5.034;2023-04-06T15:59:17;15.73;;;6.50;;
43861;SDS011;29510;52.140;5.034;2023-04-06T16:09:18;7.07;;;4.10;;
43861;SDS011;29510;52.140;5.034;2023-04-06T16:19:19;7.82;;;4.55;;
43861;SDS011;29510;52.140;5.034;2023-04-06T16:29:20;10.45;;;5.68;;
43861;SDS011;29510;52.140;5.034;2023-04-06T16:39:22;9.80;;;4.70;;
43861;SDS011;29510;52.140;5.034;2023-04-06T16:49:23;10.77;;;5.90;;
43861;SDS011;29510;52.140;5.034;2023-04-06T16:59:24;12.48;;;6.15;;
43861;SDS011;29510;52.140;5.034;2023-04-06T17:09:25;12.18;;;5.63;;
43861;SDS011;29510;52.140;5.034;2023-04-06T17:19:26;8.27;;;5.05;;
43861;SDS011;29510;52.140;5.034;2023-04-06T17:29:28;7.57;;;5.43;;
43861;SDS011;29510;52.140;5.034;2023-04-06T17:39:29;10.25;;;5.55;;
43861;SDS011;29510;52.140;5.034;2023-04-06T17:49:30;9.77;;;5.18;;
43861;SDS011;29510;52.140;5.034;2023-04-06T17:59:32;8.13;;;4.90;;
43861;SDS011;29510;52.140;5.034;2023-04-06T18:09:33;9.55;;;6.25;;
43861;SDS011;29510;52.140;5.034;2023-04-06T18:19:34;15.50;;;7.80;;
43861;SDS011;29510;52.140;5.034;2023-04-06T18:29:35;12.10;;;6.32;;
43861;SDS011;29510;52.140;5.034;2023-04-06T18:39:36;7.82;;;4.72;;
43861;SDS011;29510;52.140;5.034;2023-04-06T18:49:37;11.48;;;6.38;;
43861;SDS011;29510;52.140;5.034;2023-04-06T18:59:38;12.40;;;6.88;;
43861;SDS011;29510;52.140;5.034;2023-04-06T19:09:39;9.43;;;6.32;;
43861;SDS011;29510;52.140;5.034;2023-04-06T19:19:40;12.38;;;7.15;;
43861;SDS011;29510;52.140;5.034;2023-04-06T19:29:41;11.32;;;6.60;;
43861;SDS011;29510;52.140;5.034;2023-04-06T19:39:42;11.77;;;6.75;;
43861;SDS011;29510;52.140;5.034;2023-04-06T19:49:43;17.65;;;8.13;;
43861;SDS011;29510;52.140;5.034;2023-04-06T19:59:45;12.55;;;8.30;;
43861;SDS011;29510;52.140;5.034;2023-04-06T20:09:46;13.23;;;7.95;;
43861;SDS011;29510;52.140;5.034;2023-04-06T20:19:47;15.65;;;9.35;;
43861;SDS011;29510;52.140;5.034;2023-04-06T20:29:49;12.57;;;6.85;;
43861;SDS011;29510;52.140;5.034;2023-04-06T20:39:50;9.85;;;6.20;;
43861;SDS011;29510;52.140;5.034;2023-04-06T20:49:51;14.27;;;8.50;;
43861;SDS011;29510;52.140;5.034;2023-04-06T20:59:53;11.32;;;7.43;;
43861;SDS011;29510;52.140;5.034;2023-04-06T21:09:54;10.98;;;6.38;;
43861;SDS011;29510;52.140;5.034;2023-04-06T21:19:55;8.25;;;3.80;;
43861;SDS011;29510;52.140;5.034;2023-04-06T21:29:56;22.90;;;4.70;;
43861;SDS011;29510;52.140;5.034;2023-04-06T21:39:57;5.18;;;2.40;;
43861;SDS011;29510;52.140;5.034;2023-04-06T21:50:01;5.72;;;2.13;;
43861;SDS011;29510;52.140;5.034;2023-04-06T22:00:03;5.97;;;2.38;;
43861;SDS011;29510;52.140;5.034;2023-04-06T22:10:09;4.43;;;2.63;;
43861;SDS011;29510;52.140;5.034;2023-04-06T22:20:10;4.93;;;1.73;;
43861;SDS011;29510;52.140;5.034;2023-04-06T22:30:11;3.70;;;1.40;;
43861;SDS011;29510;52.140;5.034;2023-04-06T22:40:12;6.88;;;2.35;;
43861;SDS011;29510;52.140;5.034;2023-04-06T22:50:13;5.35;;;2.35;;
43861;SDS011;29510;52.140;5.034;2023-04-06T23:00:15;4.57;;;1.30;;
43861;SDS011;29510;52.140;5.034;2023-04-06T23:10:16;3.92;;;1.58;;
43861;SDS011;29510;52.140;5.034;2023-04-06T23:20:19;4.82;;;1.63;;
43861;SDS011;29510;52.140;5.034;2023-04-06T23:30:20;4.10;;;1.42;;
43861;SDS011;29510;52.140;5.034;2023-04-06T23:40:21;3.22;;;1.45;;
43861;SDS011;29510;52.140;5.034;2023-04-06T23:50:24;8.57;;;1.58;;
